Terminal Aerodrome Forecast
Issued by NWS Cleveland, OH

Home | Current Version | Previous Version | Graphics & Text | Print | Product List | Glossary On
Versions: 1 2 3 4 5 6 7 8 9 10 11 12 13 14 15 16 17 18 19 20
000
FTUS41 KCLE 201949 AAA
TAFMFD
TAF AMD
KMFD 201949Z 2020/2118 08010KT P6SM VCSH SCT018 BKN035
      TEMPO 2020/2022 2SM -TSRA BR OVC018CB
     FM202300 10010KT P6SM BKN060
     FM210600 17010KT P6SM VCSH OVC060
     FM211000 18012KT 5SM -SHRA BR OVC020
     FM211500 18015G22KT 5SM -RA BR OVC020=

USA.gov is the U.S. government's official web portal to all federal, state and local government web resources and services.